Time;durP1;ratioP1;P1;durP2;ratioP2;P2;SDS_P1;SDS_P2;PMS_P1;PMS_P2;Temp;Humidity;BMP_temperature;BMP_pressure;BME280_temperature;BME280_humidity;BME280_pressure;Samples;Min_cycle;Max_cycle;Signal;HPM_P1;HPM_P2
2023/08/27 00:01:22;;;;;;;3.50;3.20;;;16.60;1.00;;;;;;5045301;28;20471;-84
2023/08/27 00:03:48;;;;;;;6.85;3.92;;;16.90;1.00;;;;;;5030332;28;20411;-87
2023/08/27 00:06:13;;;;;;;6.70;4.10;;;16.90;1.00;;;;;;5040194;28;20419;-88
2023/08/27 00:08:39;;;;;;;5.20;3.35;;;;;;;;;;5043599;28;20383;-87
2023/08/27 00:11:05;;;;;;;6.30;3.20;;;16.60;1.00;;;;;;5017286;28;20405;-86
2023/08/27 00:13:31;;;;;;;7.07;3.60;;;;;;;;;;5031415;28;20450;-87
2023/08/27 00:15:57;;;;;;;4.97;3.97;;;17.30;1.00;;;;;;5022399;28;20394;-87
2023/08/27 00:18:25;;;;;;;6.30;3.23;;;17.10;1.00;;;;;;5021883;28;20768;-88
2023/08/27 00:20:51;;;;;;;4.78;4.30;;;16.60;1.00;;;;;;5028396;28;20407;-84
2023/08/27 00:23:17;;;;;;;5.07;3.55;;;;;;;;;;5019280;28;20486;-85
2023/08/27 00:25:43;;;;;;;5.13;3.50;;;17.30;1.00;;;;;;5024813;28;20393;-85
2023/08/27 00:28:13;;;;;;;3.78;3.38;;;16.70;1.00;;;;;;5026425;28;20396;-85
2023/08/27 00:30:38;;;;;;;5.13;3.53;;;16.80;1.00;;;;;;5031160;28;20383;-84
2023/08/27 00:33:04;;;;;;;3.70;3.30;;;;;;;;;;5033108;28;20409;-85
2023/08/27 00:35:30;;;;;;;5.33;3.87;;;17.30;1.00;;;;;;5026547;28;20389;-85
2023/08/27 00:37:55;;;;;;;5.60;3.70;;;16.70;1.00;;;;;;5008706;28;20935;-86
2023/08/27 00:40:21;;;;;;;3.67;3.38;;;16.90;1.00;;;;;;5020872;28;20428;-85
2023/08/27 00:42:47;;;;;;;3.60;3.30;;;17.00;1.00;;;;;;5032250;28;20429;-84
2023/08/27 00:45:12;;;;;;;3.50;3.15;;;;;;;;;;5015685;28;20496;-84
2023/08/27 00:47:39;;;;;;;3.35;2.80;;;16.90;1.00;;;;;;5011502;28;20839;-85
2023/08/27 00:50:08;;;;;;;4.70;3.33;;;16.90;1.00;;;;;;5010644;28;20401;-86
2023/08/27 00:52:34;;;;;;;5.20;3.00;;;16.80;1.00;;;;;;4999275;28;20456;-85
2023/08/27 00:55:03;;;;;;;6.45;3.50;;;;;;;;;;4997753;28;20413;-86
2023/08/27 00:57:30;;;;;;;5.55;3.50;;;16.90;1.00;;;;;;5000520;28;20394;-86
2023/08/27 00:59:57;;;;;;;3.50;3.20;;;17.10;1.00;;;;;;5000027;28;20395;-86
2023/08/27 01:02:23;;;;;;;4.40;3.55;;;15.70;1.00;;;;;;5017873;28;20411;-86
2023/08/27 01:04:49;;;;;;;3.70;2.90;;;16.50;1.00;;;;;;5020883;28;20409;-86
2023/08/27 01:07:22;;;;;;;4.45;3.20;;;16.70;1.00;;;;;;5017223;28;20406;-86
2023/08/27 01:09:57;;;;;;;4.72;3.17;;;16.80;1.00;;;;;;5001525;28;20486;-86
2023/08/27 01:12:47;;;;;;;5.40;3.22;;;17.00;1.00;;;;;;5068997;22;20429;-83
2023/08/27 01:15:13;;;;;;;4.18;3.17;;;18.40;1.00;;;;;;5053050;28;20377;-83
2023/08/27 01:17:39;;;;;;;3.53;3.22;;;16.70;1.00;;;;;;5047434;28;20395;-82
2023/08/27 01:20:06;;;;;;;3.10;2.80;;;16.70;1.00;;;;;;5033037;28;20482;-83
2023/08/27 01:22:32;;;;;;;3.30;3.00;;;17.00;1.00;;;;;;5052505;28;20439;-84
2023/08/27 01:24:57;;;;;;;4.70;3.70;;;16.60;1.00;;;;;;5052588;28;20432;-83
2023/08/27 01:27:34;;;;;;;5.00;3.10;;;16.20;1.00;;;;;;5051440;28;20489;-83
2023/08/27 01:30:03;;;;;;;4.38;3.35;;;16.00;1.00;;;;;;5052101;28;20369;-83
2023/08/27 01:32:36;;;;;;;3.25;2.70;;;17.20;1.00;;;;;;5031482;28;20860;-83
2023/08/27 01:35:03;;;;;;;4.63;2.92;;;16.40;1.00;;;;;;5032779;28;20394;-83
2023/08/27 01:37:29;;;;;;;4.15;3.75;;;16.70;1.00;;;;;;5035658;28;20432;-82
2023/08/27 01:39:59;;;;;;;5.60;3.80;;;16.70;1.00;;;;;;5051527;28;20519;-83
2023/08/27 01:42:25;;;;;;;5.20;3.50;;;16.40;1.00;;;;;;5051276;28;20389;-83
2023/08/27 01:44:50;;;;;;;5.07;3.22;;;16.70;1.00;;;;;;5031921;28;20407;-83
2023/08/27 01:47:16;;;;;;;4.03;2.83;;;;;;;;;;5033136;28;20390;-83
2023/08/27 01:49:42;;;;;;;4.57;3.40;;;16.80;1.00;;;;;;5030762;28;20387;-83
2023/08/27 01:52:08;;;;;;;3.78;3.10;;;16.50;1.00;;;;;;5030472;28;20394;-83
2023/08/27 01:54:33;;;;;;;3.73;3.13;;;16.80;1.00;;;;;;5031832;28;20394;-83
2023/08/27 01:56:59;;;;;;;3.55;3.25;;;16.70;1.00;;;;;;5035747;28;20772;-83
2023/08/27 01:59:25;;;;;;;3.73;3.10;;;16.70;1.00;;;;;;5031797;28;20398;-83
2023/08/27 02:01:51;;;;;;;3.37;3.00;;;;;;;;;;5031967;28;20387;-83
2023/08/27 02:04:16;;;;;;;4.97;3.37;;;17.10;1.00;;;;;;5031745;28;20454;-82
2023/08/27 02:06:42;;;;;;;3.20;2.90;;;16.60;1.00;;;;;;5030367;28;20391;-83
2023/08/27 02:09:07;;;;;;;4.22;3.17;;;16.60;1.00;;;;;;5047376;28;20398;-83
2023/08/27 02:11:33;;;;;;;4.33;2.93;;;17.10;1.00;;;;;;5051342;28;20397;-83
2023/08/27 02:13:58;;;;;;;5.53;3.40;;;17.20;1.00;;;;;;5051924;28;20380;-83
2023/08/27 02:16:24;;;;;;;4.07;3.67;;;16.50;1.00;;;;;;5050362;28;20397;-82
2023/08/27 02:18:49;;;;;;;5.70;3.60;;;17.10;1.00;;;;;;5037660;28;20403;-83
2023/08/27 02:21:15;;;;;;;5.90;2.90;;;16.60;1.00;;;;;;5031705;28;20438;-83
2023/08/27 02:23:40;;;;;;;4.70;2.90;;;16.30;1.00;;;;;;5033282;28;20454;-83
2023/08/27 02:26:06;;;;;;;7.50;3.03;;;16.30;1.00;;;;;;5033193;28;20406;-83
2023/08/27 02:28:33;;;;;;;3.60;2.73;;;16.40;1.00;;;;;;5047316;28;20396;-82
2023/08/27 02:30:59;;;;;;;2.72;2.53;;;17.10;1.00;;;;;;5038938;28;20910;-83
2023/08/27 02:33:24;;;;;;;4.13;2.80;;;16.30;1.00;;;;;;5034349;28;20409;-82
2023/08/27 02:35:50;;;;;;;3.47;2.30;;;16.40;1.00;;;;;;5037055;28;20842;-83
2023/08/27 02:38:17;;;;;;;3.55;2.75;;;16.80;1.00;;;;;;5033499;28;20501;-83
2023/08/27 02:40:42;;;;;;;2.65;2.40;;;16.60;1.00;;;;;;5046887;28;20401;-83
2023/08/27 02:43:08;;;;;;;3.60;2.50;;;16.70;1.00;;;;;;5043644;28;20485;-83
2023/08/27 02:45:33;;;;;;;3.70;2.40;;;16.40;1.00;;;;;;5032235;28;20473;-83
2023/08/27 02:47:59;;;;;;;4.03;2.63;;;16.00;1.00;;;;;;5036515;28;20414;-83
2023/08/27 02:50:24;;;;;;;2.40;2.20;;;16.70;1.00;;;;;;5045574;28;20420;-82
2023/08/27 02:52:50;;;;;;;4.73;2.70;;;16.60;1.00;;;;;;5049915;28;20432;-83
2023/08/27 02:55:15;;;;;;;3.40;3.10;;;16.80;1.00;;;;;;5056972;28;20385;-83
2023/08/27 02:57:41;;;;;;;4.73;2.50;;;16.40;1.00;;;;;;5053989;28;20484;-83
2023/08/27 03:00:07;;;;;;;5.97;3.00;;;16.60;1.00;;;;;;5046137;28;20430;-82
2023/08/27 03:02:33;;;;;;;3.30;3.10;;;16.60;1.00;;;;;;5040792;28;20405;-83
2023/08/27 03:05:02;;;;;;;3.88;2.65;;;16.60;1.00;;;;;;5056128;28;20405;-82
2023/08/27 03:07:28;;;;;;;4.90;2.42;;;16.10;1.00;;;;;;5056376;28;20396;-83
2023/08/27 03:09:53;;;;;;;2.60;2.40;;;16.60;1.00;;;;;;5056768;28;20397;-83
2023/08/27 03:12:19;;;;;;;2.30;2.10;;;18.70;1.00;;;;;;5056628;28;20417;-82
2023/08/27 03:14:44;;;;;;;3.27;1.97;;;16.60;1.00;;;;;;5042104;28;20401;-82
2023/08/27 03:17:10;;;;;;;2.80;2.20;;;16.70;1.00;;;;;;5057490;28;20464;-83
2023/08/27 03:19:35;;;;;;;3.27;2.50;;;16.60;1.00;;;;;;5056524;28;20382;-83
2023/08/27 03:22:01;;;;;;;2.90;2.10;;;16.80;1.00;;;;;;5054073;28;20412;-83
2023/08/27 03:24:27;;;;;;;4.10;2.80;;;16.50;1.00;;;;;;5050578;28;20921;-82
2023/08/27 03:26:52;;;;;;;3.90;2.00;;;16.60;1.00;;;;;;5035814;28;20888;-83
2023/08/27 03:29:18;;;;;;;3.40;2.55;;;16.40;1.00;;;;;;5035038;28;20943;-83
2023/08/27 03:31:44;;;;;;;5.70;3.10;;;16.70;1.00;;;;;;5037561;28;20390;-83
2023/08/27 03:34:09;;;;;;;2.97;2.60;;;16.80;1.00;;;;;;5045446;28;20435;-83
2023/08/27 03:36:35;;;;;;;3.10;2.50;;;16.50;1.00;;;;;;5057897;28;20415;-83
2023/08/27 03:39:01;;;;;;;4.40;2.25;;;16.60;1.00;;;;;;5055346;28;20394;-83
2023/08/27 03:41:26;;;;;;;3.67;2.23;;;16.90;1.00;;;;;;5052746;28;20406;-83
2023/08/27 03:43:52;;;;;;;2.90;2.23;;;16.30;1.00;;;;;;5037112;28;20418;-83
2023/08/27 03:46:17;;;;;;;5.30;2.50;;;16.20;1.00;;;;;;5039359;28;20421;-83
2023/08/27 03:48:43;;;;;;;3.13;2.10;;;16.10;1.00;;;;;;5038958;28;20480;-83
2023/08/27 03:51:08;;;;;;;3.20;2.23;;;16.60;1.00;;;;;;5039369;28;20470;-83
2023/08/27 03:53:34;;;;;;;3.30;2.38;;;16.00;1.00;;;;;;5038477;28;20474;-83
2023/08/27 03:56:03;;;;;;;5.20;2.00;;;16.30;1.00;;;;;;5038664;28;20418;-83
2023/08/27 03:58:29;;;;;;;3.10;2.00;;;16.30;1.00;;;;;;5036771;28;20390;-83
2023/08/27 04:00:55;;;;;;;2.23;1.80;;;16.60;1.00;;;;;;5056458;28;20505;-83
2023/08/27 04:03:20;;;;;;;1.83;1.70;;;16.40;1.00;;;;;;5058397;28;20401;-83
2023/08/27 04:05:49;;;;;;;2.00;1.60;;;16.60;1.00;;;;;;5050389;28;20398;-82
2023/08/27 04:08:15;;;;;;;1.90;1.70;;;16.30;1.00;;;;;;5037469;28;20470;-83
2023/08/27 04:11:09;;;;;;;4.38;2.10;;;16.70;1.00;;;;;;5034085;28;20395;-83
2023/08/27 04:13:35;;;;;;;2.42;1.80;;;16.60;1.00;;;;;;5036751;28;20391;-82
2023/08/27 04:16:10;;;;;;;2.90;1.70;;;16.50;1.00;;;;;;5038498;28;20410;-83
2023/08/27 04:18:36;;;;;;;3.28;2.08;;;16.60;1.00;;;;;;5036295;28;20394;-82
2023/08/27 04:21:03;;;;;;;3.80;1.80;;;16.90;1.00;;;;;;5037140;28;20391;-82
2023/08/27 04:23:28;;;;;;;2.85;1.90;;;15.90;1.00;;;;;;5036991;28;20490;-84
2023/08/27 04:25:54;;;;;;;2.10;1.90;;;16.50;1.00;;;;;;5044059;28;20432;-83
2023/08/27 04:28:21;;;;;;;2.03;1.83;;;16.20;1.00;;;;;;5054003;28;20396;-83
2023/08/27 04:30:48;;;;;;;2.35;1.80;;;16.40;1.00;;;;;;5063877;28;20384;-82
2023/08/27 04:33:14;;;;;;;4.60;1.88;;;16.50;1.00;;;;;;5045258;28;20401;-83
2023/08/27 04:35:39;;;;;;;2.23;2.03;;;17.70;1.00;;;;;;5040611;28;20403;-83
2023/08/27 04:38:05;;;;;;;4.50;2.07;;;16.30;1.00;;;;;;5039231;28;20394;-83
2023/08/27 04:40:31;;;;;;;2.63;1.90;;;16.90;1.00;;;;;;5040945;28;20414;-83
2023/08/27 04:42:58;;;;;;;3.65;1.77;;;16.80;1.00;;;;;;5049631;28;20395;-83
2023/08/27 04:45:24;;;;;;;3.50;2.00;;;16.70;1.00;;;;;;5042416;28;20399;-83
2023/08/27 04:47:49;;;;;;;2.53;2.10;;;16.70;1.00;;;;;;5051298;28;20404;-83
2023/08/27 04:50:15;;;;;;;2.93;1.87;;;17.00;1.00;;;;;;5062420;28;20462;-83
2023/08/27 04:52:40;;;;;;;2.13;1.90;;;16.50;1.00;;;;;;5063341;28;20391;-83
2023/08/27 04:55:07;;;;;;;2.10;1.70;;;16.50;1.00;;;;;;5062845;28;20393;-83
2023/08/27 04:57:36;;;;;;;2.20;1.90;;;16.80;1.00;;;;;;5055505;28;20399;-83
2023/08/27 05:00:22;;;;;;;2.70;2.08;;;16.70;1.00;;;;;;5042411;28;20387;-83
2023/08/27 05:02:49;;;;;;;2.80;2.00;;;16.60;1.00;;;;;;5041728;28;20391;-83
2023/08/27 05:05:15;;;;;;;2.42;1.40;;;17.30;1.00;;;;;;5038297;28;20409;-82
2023/08/27 05:07:41;;;;;;;2.50;1.70;;;16.40;1.00;;;;;;5055952;28;20385;-82
2023/08/27 05:10:07;;;;;;;3.10;2.10;;;16.10;1.00;;;;;;5061165;28;20416;-82
2023/08/27 05:12:32;;;;;;;4.65;2.10;;;16.70;1.00;;;;;;5060832;28;20394;-82
2023/08/27 05:14:58;;;;;;;2.80;2.00;;;16.40;1.00;;;;;;5058684;28;20393;-83
2023/08/27 05:17:23;;;;;;;2.20;1.60;;;16.70;1.00;;;;;;5037866;28;20406;-83
2023/08/27 05:19:49;;;;;;;2.47;1.97;;;16.80;1.00;;;;;;5037200;28;20866;-82
2023/08/27 05:22:15;;;;;;;2.47;2.10;;;15.90;1.00;;;;;;5037423;28;20399;-83
2023/08/27 05:24:40;;;;;;;2.10;1.70;;;16.70;1.00;;;;;;5038247;28;20410;-83
2023/08/27 05:27:06;;;;;;;2.00;1.80;;;16.40;1.00;;;;;;5039752;28;20391;-83
2023/08/27 05:29:31;;;;;;;2.60;1.80;;;16.80;1.00;;;;;;5039038;28;20461;-83
2023/08/27 05:31:57;;;;;;;2.40;1.70;;;16.50;1.00;;;;;;5035754;28;20383;-82
2023/08/27 05:34:25;;;;;;;3.10;1.90;;;15.90;1.00;;;;;;5072816;28;20462;-83
2023/08/27 05:36:51;;;;;;;3.57;1.70;;;16.30;1.00;;;;;;5053179;28;20979;-83
2023/08/27 05:39:16;;;;;;;2.13;1.93;;;16.40;1.00;;;;;;5047192;28;20477;-81
2023/08/27 05:41:42;;;;;;;4.80;2.00;;;16.90;1.00;;;;;;5041259;28;20407;-83
2023/08/27 05:44:07;;;;;;;2.30;1.80;;;16.80;1.00;;;;;;5035312;28;20498;-83
2023/08/27 05:46:33;;;;;;;4.90;1.80;;;16.20;1.00;;;;;;5034134;28;20466;-81
2023/08/27 05:49:00;;;;;;;3.20;1.90;;;17.00;1.00;;;;;;5036545;28;20921;-83
2023/08/27 05:51:25;;;;;;;4.47;2.80;;;16.70;1.00;;;;;;5037817;28;20920;-81
2023/08/27 05:53:51;;;;;;;2.83;1.70;;;16.30;1.00;;;;;;5052922;28;20393;-82
2023/08/27 05:56:16;;;;;;;3.78;1.92;;;17.50;1.00;;;;;;5055250;28;20385;-81
2023/08/27 05:58:42;;;;;;;2.17;1.97;;;18.80;1.00;;;;;;5055211;28;20389;-81
2023/08/27 06:01:08;;;;;;;2.38;2.00;;;16.50;1.00;;;;;;5053124;28;20391;-81
2023/08/27 06:03:33;;;;;;;2.13;1.80;;;16.60;1.00;;;;;;5056665;28;21012;-81
2023/08/27 06:05:58;;;;;;;6.80;1.90;;;16.80;1.00;;;;;;5052826;28;20397;-82
2023/08/27 06:08:24;;;;;;;3.08;1.65;;;16.40;1.00;;;;;;5036357;28;20391;-82
2023/08/27 06:10:50;;;;;;;2.20;2.00;;;16.40;1.00;;;;;;5036797;28;20399;-81
2023/08/27 06:13:15;;;;;;;2.00;1.80;;;17.10;1.00;;;;;;5040218;28;20391;-82
2023/08/27 06:15:41;;;;;;;2.00;1.80;;;16.50;1.00;;;;;;5041058;28;20802;-82
2023/08/27 06:18:07;;;;;;;2.77;2.10;;;16.60;1.00;;;;;;5050387;28;20399;-81
2023/08/27 06:20:33;;;;;;;3.20;2.00;;;16.50;1.00;;;;;;5040032;28;20774;-82
2023/08/27 06:23:00;;;;;;;3.35;1.70;;;16.50;1.00;;;;;;5036231;28;20750;-81
2023/08/27 06:25:26;;;;;;;3.17;2.10;;;18.50;1.00;;;;;;5041553;28;20411;-81
2023/08/27 06:27:54;;;;;;;2.20;2.00;;;17.30;1.00;;;;;;5044575;28;20404;-81
2023/08/27 06:30:20;;;;;;;4.53;2.20;;;16.60;1.00;;;;;;5054992;28;20466;-81
2023/08/27 06:32:45;;;;;;;2.58;1.90;;;16.90;1.00;;;;;;5052825;28;20394;-82
2023/08/27 06:35:11;;;;;;;3.20;2.20;;;16.40;1.00;;;;;;5045027;28;20376;-80
2023/08/27 06:37:37;;;;;;;2.13;1.80;;;16.70;1.00;;;;;;5049149;28;20407;-81
2023/08/27 06:40:02;;;;;;;2.60;1.50;;;16.80;1.00;;;;;;5037689;28;20445;-80
2023/08/27 06:42:28;;;;;;;3.13;1.70;;;17.20;1.00;;;;;;5039602;28;20387;-81
2023/08/27 06:44:54;;;;;;;2.20;2.00;;;17.20;1.00;;;;;;5033477;28;20498;-81
2023/08/27 06:47:19;;;;;;;2.80;1.90;;;17.10;1.00;;;;;;5036040;28;20383;-81
2023/08/27 06:49:45;;;;;;;2.90;2.20;;;16.00;1.00;;;;;;5038247;28;20384;-81
2023/08/27 06:52:11;;;;;;;2.93;1.70;;;17.20;1.00;;;;;;5034852;28;20391;-81
2023/08/27 06:54:36;;;;;;;2.00;1.70;;;19.20;1.00;;;;;;5035985;28;20390;-81
2023/08/27 06:57:02;;;;;;;1.92;1.73;;;16.60;1.00;;;;;;5036230;28;20786;-82
2023/08/27 06:59:27;;;;;;;1.60;1.50;;;16.90;1.00;;;;;;5051742;28;20420;-81
2023/08/27 07:01:53;;;;;;;3.23;1.80;;;16.90;1.00;;;;;;5051229;28;20424;-81
2023/08/27 07:04:18;;;;;;;3.00;1.70;;;17.10;1.00;;;;;;5050851;28;20480;-81
2023/08/27 07:06:44;;;;;;;3.00;1.80;;;16.90;1.00;;;;;;5031574;28;20407;-82
2023/08/27 07:09:09;;;;;;;2.00;1.80;;;16.30;1.00;;;;;;5038262;28;20375;-81
2023/08/27 07:11:35;;;;;;;2.20;1.63;;;16.90;1.00;;;;;;5044897;28;20403;-82
2023/08/27 07:14:01;;;;;;;2.30;1.90;;;16.70;1.00;;;;;;5043152;28;20382;-82
2023/08/27 07:16:26;;;;;;;3.38;2.30;;;17.00;1.00;;;;;;5051864;28;20412;-82
2023/08/27 07:18:53;;;;;;;2.72;1.90;;;17.00;1.00;;;;;;5051259;28;20396;-82
2023/08/27 07:21:18;;;;;;;1.70;1.60;;;16.90;1.00;;;;;;5036984;28;20403;-82
2023/08/27 07:23:44;;;;;;;2.43;1.83;;;17.40;1.00;;;;;;5030973;28;20403;-83
2023/08/27 07:26:11;;;;;;;2.20;1.50;;;16.50;1.00;;;;;;5031202;28;20434;-83
2023/08/27 07:28:37;;;;;;;2.97;1.60;;;16.60;1.00;;;;;;5030661;28;20379;-83
2023/08/27 07:31:02;;;;;;;2.08;1.88;;;17.20;1.00;;;;;;5042667;28;20405;-83
2023/08/27 07:33:28;;;;;;;1.70;1.60;;;16.70;1.00;;;;;;5045119;28;20390;-83
2023/08/27 07:35:53;;;;;;;3.27;1.90;;;16.80;1.00;;;;;;5043806;28;20410;-83
2023/08/27 07:38:19;;;;;;;3.00;1.77;;;16.80;1.00;;;;;;5036326;28;20391;-83
2023/08/27 07:40:45;;;;;;;2.80;1.80;;;17.60;1.00;;;;;;5029773;28;20406;-83
2023/08/27 07:43:11;;;;;;;1.67;1.58;;;16.90;1.00;;;;;;5029529;28;20384;-83
2023/08/27 07:45:36;;;;;;;3.23;1.57;;;16.80;1.00;;;;;;5029743;28;20398;-83
2023/08/27 07:48:02;;;;;;;4.07;1.40;;;17.20;1.00;;;;;;5029373;28;20472;-83
2023/08/27 07:50:27;;;;;;;3.72;1.80;;;17.90;1.00;;;;;;5041303;28;20389;-83
2023/08/27 07:52:53;;;;;;;1.60;1.50;;;17.20;1.00;;;;;;5051062;28;20417;-83
2023/08/27 07:55:19;;;;;;;2.60;1.50;;;17.00;1.00;;;;;;5041643;28;20403;-82
2023/08/27 07:57:45;;;;;;;2.25;1.85;;;16.90;1.00;;;;;;5029592;28;20764;-83
2023/08/27 08:00:13;;;;;;;3.45;1.90;;;17.40;1.00;;;;;;5029352;28;20383;-83
2023/08/27 08:02:40;;;;;;;1.80;1.70;;;17.40;1.00;;;;;;5030906;28;20839;-82
2023/08/27 08:05:06;;;;;;;1.77;1.50;;;18.20;1.00;;;;;;5034002;28;20421;-83
2023/08/27 08:07:33;;;;;;;1.75;1.65;;;17.60;1.00;;;;;;5050831;28;20385;-82
2023/08/27 08:09:58;;;;;;;3.00;1.88;;;17.20;1.00;;;;;;5049047;28;20477;-82
2023/08/27 08:12:24;;;;;;;4.07;1.70;;;17.70;1.00;;;;;;5048683;28;20393;-82
2023/08/27 08:14:49;;;;;;;3.30;2.00;;;17.80;1.00;;;;;;5051380;28;20476;-83
2023/08/27 08:17:15;;;;;;;2.00;1.87;;;17.30;1.00;;;;;;5053727;28;20382;-83
2023/08/27 08:19:40;;;;;;;5.07;2.20;;;17.20;1.00;;;;;;5051542;28;20877;-83
2023/08/27 08:22:06;;;;;;;3.50;1.77;;;17.50;1.00;;;;;;5051585;28;20397;-81
2023/08/27 08:24:31;;;;;;;2.30;1.70;;;17.40;1.00;;;;;;5047854;28;20893;-83
2023/08/27 08:26:57;;;;;;;1.90;1.30;;;17.30;1.00;;;;;;5052249;28;20397;-82
2023/08/27 08:29:22;;;;;;;2.13;1.90;;;18.00;1.00;;;;;;5052675;28;20400;-82
2023/08/27 08:31:48;;;;;;;2.65;1.70;;;17.50;1.00;;;;;;5051595;28;20385;-81
2023/08/27 08:34:14;;;;;;;2.60;1.83;;;17.10;1.00;;;;;;5044600;28;20391;-83
2023/08/27 08:36:40;;;;;;;2.50;1.77;;;19.10;1.00;;;;;;5033039;28;20391;-83
2023/08/27 08:39:05;;;;;;;2.47;1.80;;;17.70;1.00;;;;;;5038376;28;20428;-82
2023/08/27 08:41:39;;;;;;;1.80;1.50;;;17.50;1.00;;;;;;5070352;28;20402;-82
2023/08/27 08:44:12;;;;;;;3.40;1.70;;;18.50;1.00;;;;;;5036623;28;20418;-83
2023/08/27 08:46:40;;;;;;;1.70;1.60;;;17.40;1.00;;;;;;5029225;28;20423;-83
2023/08/27 08:49:14;;;;;;;1.90;1.70;;;17.60;1.00;;;;;;5030373;28;20468;-81
2023/08/27 08:51:39;;;;;;;2.57;1.90;;;17.60;1.00;;;;;;5055350;28;20394;-80
2023/08/27 08:54:09;;;;;;;2.13;1.70;;;18.10;1.00;;;;;;5061696;28;20393;-80
2023/08/27 08:56:46;;;;;;;2.80;2.10;;;17.80;1.00;;;;;;5051430;28;20403;-81
2023/08/27 08:59:12;;;;;;;2.20;1.70;;;17.80;1.00;;;;;;5041515;28;20751;-81
2023/08/27 09:01:38;;;;;;;1.50;1.40;;;18.80;1.00;;;;;;5039083;28;20411;-82
2023/08/27 09:04:06;;;;;;;2.07;1.50;;;18.30;1.00;;;;;;5027085;28;20504;-83
2023/08/27 09:06:33;;;;;;;1.48;1.38;;;18.70;1.00;;;;;;5033429;28;20396;-82
2023/08/27 09:09:00;;;;;;;2.10;1.60;;;18.30;1.00;;;;;;5025193;28;20937;-83
2023/08/27 09:11:27;;;;;;;1.50;1.40;;;19.60;1.00;;;;;;5014649;28;20476;-83
2023/08/27 09:13:54;;;;;;;2.53;1.50;;;;;;;;;;5024850;28;20443;-83
2023/08/27 09:16:20;;;;;;;2.50;1.70;;;18.50;1.00;;;;;;5035449;28;20485;-83
2023/08/27 09:18:45;;;;;;;2.53;1.63;;;19.40;1.00;;;;;;5041767;28;20411;-83
2023/08/27 09:21:11;;;;;;;2.40;1.50;;;18.20;1.00;;;;;;5036701;28;20752;-83
2023/08/27 09:23:37;;;;;;;1.80;1.60;;;18.50;1.00;;;;;;5038894;28;20399;-84
2023/08/27 09:26:04;;;;;;;2.17;1.60;;;18.60;1.00;;;;;;5038233;28;20393;-83
2023/08/27 09:28:30;;;;;;;1.83;1.60;;;18.30;1.00;;;;;;5039052;28;20397;-83
2023/08/27 09:30:58;;;;;;;1.87;1.50;;;18.60;1.00;;;;;;5053649;28;20381;-83
2023/08/27 09:33:39;;;;;;;2.00;1.70;;;18.60;1.00;;;;;;5041659;28;20406;-83
2023/08/27 09:36:06;;;;;;;1.70;1.60;;;18.50;1.00;;;;;;5043735;28;20470;-83
2023/08/27 09:38:33;;;;;;;1.95;1.50;;;19.00;1.00;;;;;;5038636;28;20387;-83
2023/08/27 09:41:15;;;;;;;1.95;1.50;;;19.20;1.00;;;;;;5043056;28;20383;-83
2023/08/27 09:43:40;;;;;;;1.90;1.40;;;18.70;1.00;;;;;;5038323;28;20413;-83
2023/08/27 09:46:12;;;;;;;3.70;2.13;;;18.80;1.00;;;;;;5055008;28;20393;-83
2023/08/27 09:48:37;;;;;;;3.40;1.50;;;19.60;1.00;;;;;;5049541;28;20833;-83
2023/08/27 09:51:07;;;;;;;1.50;1.40;;;19.00;1.00;;;;;;5028255;28;20536;-83
2023/08/27 09:53:33;;;;;;;3.60;1.60;;;19.40;1.00;;;;;;5039458;28;20482;-81
2023/08/27 09:55:58;;;;;;;1.77;1.60;;;18.90;1.00;;;;;;5033161;28;20417;-84
2023/08/27 09:58:27;;;;;;;2.50;1.50;;;18.60;1.00;;;;;;5038588;28;20419;-83
2023/08/27 10:00:59;;;;;;;2.75;1.73;;;18.60;1.00;;;;;;5054295;28;20394;-80
2023/08/27 10:03:28;;;;;;;5.10;1.90;;;20.30;1.00;;;;;;5034541;28;20415;-82
2023/08/27 10:05:54;;;;;;;2.72;1.70;;;20.10;1.00;;;;;;5049679;28;20393;-80
2023/08/27 10:08:20;;;;;;;3.00;1.70;;;20.40;1.00;;;;;;5038626;28;20392;-80
2023/08/27 10:10:46;;;;;;;2.63;1.90;;;19.50;1.00;;;;;;5052313;28;20405;-81
2023/08/27 10:13:15;;;;;;;3.10;1.60;;;18.80;1.00;;;;;;5049404;28;20391;-81
2023/08/27 10:15:40;;;;;;;1.90;1.55;;;20.40;1.00;;;;;;5050755;28;20421;-81
2023/08/27 10:18:12;;;;;;;4.65;2.30;;;21.40;1.00;;;;;;5049812;28;20377;-81
2023/08/27 10:20:41;;;;;;;2.40;2.00;;;20.20;1.00;;;;;;5056486;28;20413;-81
2023/08/27 10:23:10;;;;;;;2.55;1.83;;;19.70;1.00;;;;;;5054204;28;20389;-82
2023/08/27 10:25:37;;;;;;;3.05;1.75;;;19.60;1.00;;;;;;5039453;28;20410;-82
2023/08/27 10:28:04;;;;;;;3.80;1.60;;;20.00;1.00;;;;;;5062412;28;20405;-80
2023/08/27 10:30:31;;;;;;;2.30;1.80;;;19.80;1.00;;;;;;5056712;28;20393;-81
2023/08/27 10:32:57;;;;;;;1.95;1.75;;;20.10;1.00;;;;;;5052915;28;20389;-82
2023/08/27 10:35:23;;;;;;;2.88;1.60;;;20.10;1.00;;;;;;5048251;28;20463;-79
2023/08/27 10:37:53;;;;;;;2.03;1.50;;;21.70;1.00;;;;;;5051089;28;20408;-81
2023/08/27 10:40:20;;;;;;;3.28;1.80;;;20.60;1.00;;;;;;5039096;28;20450;-81
2023/08/27 10:42:45;;;;;;;1.90;1.80;;;21.60;1.00;;;;;;5037771;28;20444;-81
2023/08/27 10:45:16;;;;;;;4.27;2.30;;;20.00;1.00;;;;;;5040006;28;20410;-80
2023/08/27 10:48:03;;;;;;;3.50;1.67;;;20.20;1.00;;;;;;5051424;28;20444;-80
2023/08/27 10:50:46;;;;;;;2.85;1.83;;;19.90;1.00;;;;;;5043492;28;20389;-81
2023/08/27 10:53:12;;;;;;;1.55;1.45;;;20.80;1.00;;;;;;5052363;28;20384;-80
2023/08/27 10:55:40;;;;;;;2.10;1.63;;;19.80;1.00;;;;;;5053741;28;20397;-81
2023/08/27 10:58:18;;;;;;;3.50;1.90;;;19.90;1.00;;;;;;5053129;28;20881;-82
2023/08/27 11:01:09;;;;;;;1.57;1.40;;;20.50;1.00;;;;;;5053107;28;20452;-82
2023/08/27 11:03:53;;;;;;;2.70;2.00;;;20.50;1.00;;;;;;5049068;28;20937;-80
2023/08/27 11:06:20;;;;;;;2.40;1.43;;;20.30;1.00;;;;;;5058913;28;20400;-79
2023/08/27 11:08:50;;;;;;;1.95;1.65;;;20.60;1.00;;;;;;5032157;28;20406;-79
2023/08/27 11:11:16;;;;;;;2.60;1.80;;;20.70;1.00;;;;;;5032633;28;20414;-79
2023/08/27 11:13:41;;;;;;;1.80;1.52;;;20.80;1.00;;;;;;5047133;28;20445;-78
2023/08/27 11:16:16;;;;;;;4.00;1.50;;;21.00;1.00;;;;;;5056915;28;20414;-78
2023/08/27 11:18:50;;;;;;;3.28;1.80;;;21.70;1.00;;;;;;5050514;28;20391;-78
2023/08/27 11:21:25;;;;;;;2.10;1.73;;;20.60;1.00;;;;;;5032041;28;20811;-79
2023/08/27 11:24:23;;;;;;;3.15;2.00;;;22.20;1.00;;;;;;5030564;28;20411;-79
2023/08/27 11:26:49;;;;;;;1.90;1.70;;;20.40;1.00;;;;;;5037272;28;20383;-79
2023/08/27 11:29:16;;;;;;;1.88;1.70;;;20.40;1.00;;;;;;5063884;28;20474;-79
2023/08/27 11:31:42;;;;;;;1.63;1.50;;;20.30;1.00;;;;;;5032670;28;20391;-78
2023/08/27 11:34:11;;;;;;;1.60;1.50;;;20.70;1.00;;;;;;5030636;28;20934;-78
2023/08/27 11:36:39;;;;;;;3.17;1.40;;;20.60;1.00;;;;;;5032169;28;20409;-79
2023/08/27 11:39:05;;;;;;;3.00;1.70;;;20.50;1.00;;;;;;5033319;28;20403;-78
2023/08/27 11:41:39;;;;;;;2.05;1.60;;;20.10;1.00;;;;;;5032640;28;20394;-80
2023/08/27 11:44:06;;;;;;;1.40;1.30;;;20.10;1.00;;;;;;5031121;28;20419;-78
2023/08/27 11:46:32;;;;;;;1.90;1.60;;;20.60;1.00;;;;;;5031802;28;20826;-80
2023/08/27 11:48:58;;;;;;;1.33;1.23;;;20.80;1.00;;;;;;5032501;28;20909;-78
2023/08/27 11:51:24;;;;;;;1.63;1.50;;;20.90;1.00;;;;;;5032159;28;20387;-78
2023/08/27 11:53:51;;;;;;;2.72;1.48;;;20.40;1.00;;;;;;5038678;28;20440;-78
2023/08/27 11:56:17;;;;;;;1.60;1.40;;;20.20;1.00;;;;;;5053453;28;20407;-78
2023/08/27 11:58:44;;;;;;;2.50;1.60;;;19.90;1.00;;;;;;5050037;28;20395;-77
2023/08/27 12:01:10;;;;;;;2.40;1.42;;;20.40;1.00;;;;;;5033086;28;20394;-78
2023/08/27 12:03:57;;;;;;;2.50;1.50;;;20.80;1.00;;;;;;5034163;28;20383;-79
2023/08/27 12:06:28;;;;;;;2.00;1.58;;;20.70;1.00;;;;;;5032258;28;20391;-80
2023/08/27 12:08:55;;;;;;;2.13;1.55;;;21.00;1.00;;;;;;5031668;28;20398;-79
2023/08/27 12:11:26;;;;;;;2.20;1.57;;;20.90;1.00;;;;;;5033919;28;20883;-79
2023/08/27 12:13:55;;;;;;;1.60;1.10;;;21.70;1.00;;;;;;5054422;28;20402;-79
2023/08/27 12:16:32;;;;;;;1.97;1.50;;;20.30;1.00;;;;;;5060660;28;20385;-80
2023/08/27 12:19:08;;;;;;;1.63;1.27;;;22.50;1.00;;;;;;5076096;28;20389;-79
2023/08/27 12:21:55;;;;;;;1.30;1.17;;;21.10;1.00;;;;;;5075695;28;20397;-80
2023/08/27 12:24:30;;;;;;;1.70;1.30;;;23.10;1.00;;;;;;5077760;28;20431;-79
2023/08/27 12:27:01;;;;;;;3.22;1.70;;;20.50;1.00;;;;;;5077488;28;20480;-81
2023/08/27 12:29:32;;;;;;;1.55;1.33;;;22.10;1.00;;;;;;5062011;28;20417;-80
2023/08/27 12:32:05;;;;;;;1.50;1.33;;;20.80;1.00;;;;;;5073473;28;20381;-80
2023/08/27 12:34:33;;;;;;;2.40;1.40;;;20.20;1.00;;;;;;5065208;28;20397;-80
2023/08/27 12:36:59;;;;;;;1.48;1.38;;;20.10;1.00;;;;;;5044106;28;20428;-80
2023/08/27 12:39:24;;;;;;;2.50;1.30;;;20.30;1.00;;;;;;5052707;28;20417;-81
2023/08/27 12:41:50;;;;;;;2.20;1.50;;;20.20;1.00;;;;;;5045058;28;20379;-83
2023/08/27 12:44:15;;;;;;;2.87;1.57;;;19.50;1.00;;;;;;5035357;28;20989;-82
2023/08/27 12:46:41;;;;;;;2.00;1.40;;;20.00;1.00;;;;;;5044948;28;20491;-82
2023/08/27 12:49:07;;;;;;;3.10;1.50;;;20.20;1.00;;;;;;5055294;28;20439;-83
2023/08/27 12:51:33;;;;;;;1.60;1.50;;;20.60;1.00;;;;;;5054611;28;20405;-82
2023/08/27 12:53:58;;;;;;;1.52;1.25;;;21.00;1.00;;;;;;5055744;28;20754;-83
2023/08/27 12:56:24;;;;;;;2.33;1.63;;;20.50;1.00;;;;;;5047350;28;20409;-83
2023/08/27 12:58:49;;;;;;;2.30;1.80;;;20.00;1.00;;;;;;5041319;28;20401;-83
2023/08/27 13:01:15;;;;;;;1.80;1.60;;;18.60;1.00;;;;;;5052625;28;20451;-82